Time Latitude Longitude Accuracy (66% radius in meters) Altitude (meters) Speed (km/hour) Bearing (degrees) Battery (%) GPS flag
09:43:24 44.558965 38.197385 8 86.651263697204 0.27781802415848 22.081605911255 76 1 delete
09:43:15 44.558963 38.197381 8 86.675104631355 0.29584231972694 319.79458618164 76 1 delete
09:43:03 44.558971 38.197382 4 87.171703687015 0.29278147220612 279.78454589844 76 1 delete
09:42:51 44.558967 38.197408 6 88.271642643498 0.26308113336563 109.06529998779 76 1 delete
09:42:42 44.558979 38.197406 6 88.802160503056 0.13527958095074 152.10656738281 76 1 delete
09:42:39 44.558982 38.197412 12 88.597065035774 0.19394433498383 152.10656738281 76 1 delete
09:42:24 44.558960 38.197467 6 89.442282639574 1.5900884866714 254.72270202637 76 1 delete
09:42:21 44.559008 38.197501 6 89.683311641556 2.6023914813995 196.30732727051 76 1 delete
09:42:18 44.559107 38.197542 8 90.008621374368 2.5068428516388 204.34815979004 76 1 delete
09:42:15 44.559190 38.197602 6 90.340374708118 2.3835110664368 211.02342224121 76 1 delete
09:42:12 44.559277 38.197646 8 90.810782566098 2.3598046302795 197.0224609375 76 1 delete
09:42:09 44.559355 38.197714 12 91.110256540613 2.4324009418488 188.04605102539 76 1 delete
09:42:06 44.559427 38.197735 8 91.457543558879 2.6564347743988 212.60711669922 76 1 delete
09:42:03 44.559496 38.197753 8 91.93895602785 2.8779504299164 168.70010375977 76 1 delete
09:42:00 44.559571 38.197766 12 92.420847350322 2.9022128582001 196.76391601562 76 1 delete
09:41:57 44.559664 38.197802 12 92.865766341683 2.7942214012146 205.76083374023 76 1 delete
09:41:54 44.559733 38.197869 8 93.2367899006 2.6981775760651 229.55499267578 76 1 delete
09:41:51 44.559799 38.197946 8 93.610549932004 2.5049962997437 211.88926696777 76 1 delete
09:41:48 44.559878 38.198031 12 94.046149881687 2.1643116474152 222.14149475098 76 1 delete
09:41:45 44.559975 38.198130 12 94.528079715405 1.8089923858643 216.69964599609 76 1 delete
09:41:42 44.560076 38.198184 12 94.893373327318 1.4805492162704 184.91044616699 76 1 delete
09:41:39 44.560123 38.198159 12 95.37827031449 1.6406247615814 195.55702209473 76 1 delete
09:41:36 44.560172 38.198225 8 95.893457851482 1.2316038608551 239.51815795898 76 1 delete
10:41:37 44.560162 38.198330 8 98.703518694088 0.30494049191475 217.26277160645 76 0 delete
09:41:24 44.560166 38.198319 12 97.750525398648 0.33241677284241 162.26705932617 76 1 delete
09:41:21 44.560162 38.198330 8 98.703518694088 0.30494049191475 217.26277160645 76 1 delete
09:41:12 44.560133 38.198324 16 102.42915453693 0.35872784256935 61.386657714844 76 1 delete
09:41:03 44.560114 38.198344 8 105.59539309205 1.1256278753281 235.9178314209 76 1 delete
09:41:00 44.560142 38.198395 8 106.28600721284 0.55490815639496 289.62994384766 76 1 delete
09:40:57 44.560148 38.198432 6 106.8475441312 0.5900120139122 258.05499267578 76 1 delete
09:40:48 44.560164 38.198480 12 107.0758767952 0.81840467453003 212.9172668457 76 1 delete
09:40:36 44.560166 38.198495 12 107.15219788872 0.58600008487701 256.00720214844 76 1 delete
09:40:33 44.560187 38.198557 12 107.96618691231 0.84310466051102 137.47302246094 76 1 delete
09:40:27 44.560144 38.198593 8 108.93068809306 0.6012447476387 9.6266212463379 76 1 delete
09:40:24 44.560141 38.198620 8 109.44939978821 0.56164503097534 221.22889709473 76 1 delete
09:40:15 44.560127 38.198673 12 111.78471151449 0.63879191875458 296.43728637695 76 1 delete
09:40:12 44.560129 38.198704 8 112.59698137075 0.43356293439865 243.7123260498 76 1 delete
09:40:03 44.560159 38.198740 12 114.87917647632 0.48064005374908 236.1667175293 76 1 delete
09:39:57 44.560201 38.198808 8 115.08002538306 0.78877466917038 227.87367248535 76 1 delete
09:39:51 44.560259 38.198864 6 114.74644753542 0.56400859355927 253.14184570312 76 1 delete
09:39:42 44.560258 38.198901 8 114.08913280141 0.50879240036011 229.99980163574 76 1 delete
09:39:39 44.560264 38.198919 8 114.39571967264 0.27720707654953 178.93156433105 76 1 delete
09:39:27 44.560255 38.198967 8 115.92437449665 0.34941735863686 157.49769592285 76 1 delete
09:39:21 44.560262 38.198974 8 117.33888216627 0.7694034576416 217.5927734375 76 1 delete
09:39:15 44.560306 38.199051 8 118.31728116155 0.98439007997513 249.33883666992 76 1 delete
09:39:09 44.560321 38.199141 8 118.80460988624 0.42008537054062 348.10034179688 76 1 delete
09:39:03 44.560324 38.199171 8 118.72556673488 0.2586325109005 154.72662353516 76 1 delete
09:38:54 44.560337 38.199217 8 118.451756189 0.68108308315277 209.44288635254 76 1 delete
09:38:45 44.560384 38.199266 12 119.10496806974 0.673324406147 245.41384887695 76 1 delete
09:38:39 44.560430 38.199306 6 119.66852601579 0.70640605688095 215.69932556152 76 1 delete